sensor_id;sensor_type;location;lat;lon;timestamp;pressure;altitude;pressure_sealevel;temperature;humidity
83195;BME280;73090;49.282;11.402;2024-02-14T00:01:19;96878.88;;;-0.85;97.87
83195;BME280;73090;49.282;11.402;2024-02-14T00:05:21;96880.75;;;-0.87;98.11
83195;BME280;73090;49.282;11.402;2024-02-14T00:09:24;96872.69;;;-0.82;97.83
83195;BME280;73090;49.282;11.402;2024-02-14T00:13:26;96870.03;;;-0.94;97.56
83195;BME280;73090;49.282;11.402;2024-02-14T00:17:27;96876.31;;;-0.98;97.41
83195;BME280;73090;49.282;11.402;2024-02-14T00:21:29;96869.00;;;-1.04;97.83
83195;BME280;73090;49.282;11.402;2024-02-14T00:25:31;96873.53;;;-1.07;97.48
83195;BME280;73090;49.282;11.402;2024-02-14T00:29:33;96868.47;;;-1.09;97.75
83195;BME280;73090;49.282;11.402;2024-02-14T00:33:37;96866.72;;;-1.08;98.09
83195;BME280;73090;49.282;11.402;2024-02-14T00:37:39;96871.97;;;-1.10;98.00
83195;BME280;73090;49.282;11.402;2024-02-14T00:41:41;96873.66;;;-1.09;97.99
83195;BME280;73090;49.282;11.402;2024-02-14T00:45:42;96869.63;;;-1.13;97.97
83195;BME280;73090;49.282;11.402;2024-02-14T00:49:44;96878.00;;;-1.10;97.85
83195;BME280;73090;49.282;11.402;2024-02-14T00:53:46;96871.47;;;-1.02;98.04
83195;BME280;73090;49.282;11.402;2024-02-14T00:57:47;96875.00;;;-1.03;98.24
83195;BME280;73090;49.282;11.402;2024-02-14T01:01:49;96881.78;;;-1.02;98.32
83195;BME280;73090;49.282;11.402;2024-02-14T01:05:50;96877.69;;;-1.05;98.38
83195;BME280;73090;49.282;11.402;2024-02-14T01:09:52;96878.50;;;-1.04;98.18
83195;BME280;73090;49.282;11.402;2024-02-14T01:13:54;96884.56;;;-1.05;98.04
83195;BME280;73090;49.282;11.402;2024-02-14T01:17:55;96883.16;;;-1.10;97.87
83195;BME280;73090;49.282;11.402;2024-02-14T01:21:57;96891.31;;;-1.16;97.70
83195;BME280;73090;49.282;11.402;2024-02-14T01:25:59;96882.41;;;-1.24;97.84
83195;BME280;73090;49.282;11.402;2024-02-14T01:30:00;96887.78;;;-1.28;98.03
83195;BME280;73090;49.282;11.402;2024-02-14T01:34:02;96885.75;;;-1.22;98.24
83195;BME280;73090;49.282;11.402;2024-02-14T01:38:05;96884.28;;;-1.26;97.89
83195;BME280;73090;49.282;11.402;2024-02-14T01:42:07;96885.19;;;-1.28;98.08
83195;BME280;73090;49.282;11.402;2024-02-14T01:46:09;96877.25;;;-1.24;98.16
83195;BME280;73090;49.282;11.402;2024-02-14T01:50:11;96872.00;;;-1.23;98.60
83195;BME280;73090;49.282;11.402;2024-02-14T01:54:14;96878.00;;;-1.22;98.45
83195;BME280;73090;49.282;11.402;2024-02-14T01:58:16;96870.06;;;-1.19;98.76
83195;BME280;73090;49.282;11.402;2024-02-14T02:02:17;96869.41;;;-1.10;98.81
83195;BME280;73090;49.282;11.402;2024-02-14T02:06:20;96867.47;;;-1.06;99.08
83195;BME280;73090;49.282;11.402;2024-02-14T02:10:22;96862.50;;;-0.97;99.02
83195;BME280;73090;49.282;11.402;2024-02-14T02:14:26;96855.34;;;-0.93;99.25
83195;BME280;73090;49.282;11.402;2024-02-14T02:18:29;96862.78;;;-0.88;99.10
83195;BME280;73090;49.282;11.402;2024-02-14T02:22:32;96857.31;;;-0.84;99.39
83195;BME280;73090;49.282;11.402;2024-02-14T02:26:36;96858.13;;;-0.83;99.43
83195;BME280;73090;49.282;11.402;2024-02-14T02:30:38;96858.22;;;-0.85;99.22
83195;BME280;73090;49.282;11.402;2024-02-14T02:34:39;96852.44;;;-0.88;98.96
83195;BME280;73090;49.282;11.402;2024-02-14T02:38:41;96851.75;;;-0.90;98.94
83195;BME280;73090;49.282;11.402;2024-02-14T02:42:43;96854.44;;;-0.92;98.92
83195;BME280;73090;49.282;11.402;2024-02-14T02:46:46;96852.78;;;-0.93;98.99
83195;BME280;73090;49.282;11.402;2024-02-14T02:50:48;96846.78;;;-0.94;99.31
83195;BME280;73090;49.282;11.402;2024-02-14T02:54:51;96838.09;;;-0.93;99.05
83195;BME280;73090;49.282;11.402;2024-02-14T02:58:55;96838.94;;;-0.92;99.04
83195;BME280;73090;49.282;11.402;2024-02-14T03:02:57;96836.47;;;-0.94;99.06
83195;BME280;73090;49.282;11.402;2024-02-14T03:06:58;96841.22;;;-0.87;99.17
83195;BME280;73090;49.282;11.402;2024-02-14T03:11:06;96835.09;;;-0.86;99.57
83195;BME280;73090;49.282;11.402;2024-02-14T03:15:08;96843.13;;;-0.78;99.61
83195;BME280;73090;49.282;11.402;2024-02-14T03:19:12;96844.69;;;-0.76;99.64
83195;BME280;73090;49.282;11.402;2024-02-14T03:23:13;96848.69;;;-0.71;99.63
83195;BME280;73090;49.282;11.402;2024-02-14T03:27:16;96837.31;;;-0.69;99.93
83195;BME280;73090;49.282;11.402;2024-02-14T03:31:19;96839.25;;;-0.60;99.77
83195;BME280;73090;49.282;11.402;2024-02-14T03:35:21;96837.66;;;-0.49;100.00
83195;BME280;73090;49.282;11.402;2024-02-14T03:39:23;96838.44;;;-0.36;100.00
83195;BME280;73090;49.282;11.402;2024-02-14T03:43:25;96840.75;;;-0.20;100.00
83195;BME280;73090;49.282;11.402;2024-02-14T03:47:26;96848.88;;;-0.13;100.00
83195;BME280;73090;49.282;11.402;2024-02-14T03:51:28;96839.44;;;-0.14;100.00
83195;BME280;73090;49.282;11.402;2024-02-14T03:55:30;96835.56;;;-0.20;100.00
83195;BME280;73090;49.282;11.402;2024-02-14T03:59:35;96839.31;;;-0.24;100.00
83195;BME280;73090;49.282;11.402;2024-02-14T04:03:37;96841.78;;;-0.23;100.00
83195;BME280;73090;49.282;11.402;2024-02-14T04:07:38;96849.75;;;-0.26;100.00
83195;BME280;73090;49.282;11.402;2024-02-14T04:11:40;96855.13;;;-0.29;100.00
83195;BME280;73090;49.282;11.402;2024-02-14T04:15:42;96851.13;;;-0.33;100.00
83195;BME280;73090;49.282;11.402;2024-02-14T04:19:44;96847.00;;;-0.35;99.86
83195;BME280;73090;49.282;11.402;2024-02-14T04:23:46;96851.47;;;-0.38;100.00
83195;BME280;73090;49.282;11.402;2024-02-14T04:27:47;96856.84;;;-0.41;100.00
83195;BME280;73090;49.282;11.402;2024-02-14T04:31:49;96856.97;;;-0.42;100.00
83195;BME280;73090;49.282;11.402;2024-02-14T04:35:50;96852.81;;;-0.45;100.00
83195;BME280;73090;49.282;11.402;2024-02-14T04:39:52;96858.19;;;-0.48;100.00
83195;BME280;73090;49.282;11.402;2024-02-14T04:43:54;96855.97;;;-0.52;99.84
83195;BME280;73090;49.282;11.402;2024-02-14T04:47:56;96851.13;;;-0.57;99.69
83195;BME280;73090;49.282;11.402;2024-02-14T04:51:57;96837.91;;;-0.65;99.22
83195;BME280;73090;49.282;11.402;2024-02-14T04:56:00;96835.78;;;-0.71;99.26
83195;BME280;73090;49.282;11.402;2024-02-14T05:00:01;96842.00;;;-0.74;99.13
83195;BME280;73090;49.282;11.402;2024-02-14T05:04:06;96847.03;;;-0.73;99.36
83195;BME280;73090;49.282;11.402;2024-02-14T05:08:10;96853.03;;;-0.72;99.07
83195;BME280;73090;49.282;11.402;2024-02-14T05:12:12;96850.34;;;-0.70;99.51
83195;BME280;73090;49.282;11.402;2024-02-14T05:16:18;96849.19;;;-0.66;99.73
83195;BME280;73090;49.282;11.402;2024-02-14T05:20:20;96863.41;;;-0.61;99.76
83195;BME280;73090;49.282;11.402;2024-02-14T05:24:21;96862.97;;;-0.55;100.00
83195;BME280;73090;49.282;11.402;2024-02-14T05:28:23;96865.03;;;-0.47;100.00
83195;BME280;73090;49.282;11.402;2024-02-14T05:32:25;96861.91;;;-0.39;100.00
83195;BME280;73090;49.282;11.402;2024-02-14T05:36:26;96869.22;;;-0.33;99.91
83195;BME280;73090;49.282;11.402;2024-02-14T05:40:28;96874.22;;;-0.19;100.00
83195;BME280;73090;49.282;11.402;2024-02-14T05:44:30;96882.50;;;-0.02;100.00
83195;BME280;73090;49.282;11.402;2024-02-14T05:48:32;96886.69;;;0.12;100.00
83195;BME280;73090;49.282;11.402;2024-02-14T05:52:33;96887.16;;;0.17;100.00
83195;BME280;73090;49.282;11.402;2024-02-14T05:56:35;96886.59;;;0.25;100.00
83195;BME280;73090;49.282;11.402;2024-02-14T06:00:38;96892.03;;;0.33;99.90
83195;BME280;73090;49.282;11.402;2024-02-14T06:04:40;96884.03;;;0.36;99.75
83195;BME280;73090;49.282;11.402;2024-02-14T06:08:42;96875.59;;;0.45;99.62
83195;BME280;73090;49.282;11.402;2024-02-14T06:12:44;96886.09;;;0.55;99.32
83195;BME280;73090;49.282;11.402;2024-02-14T06:16:47;96894.31;;;0.60;99.18
83195;BME280;73090;49.282;11.402;2024-02-14T06:20:49;96892.56;;;0.61;98.68
83195;BME280;73090;49.282;11.402;2024-02-14T06:24:51;96891.97;;;0.68;98.30
83195;BME280;73090;49.282;11.402;2024-02-14T06:28:52;96891.41;;;0.76;98.11
83195;BME280;73090;49.282;11.402;2024-02-14T06:32:56;96894.50;;;0.81;97.76
83195;BME280;73090;49.282;11.402;2024-02-14T06:37:02;96888.94;;;0.86;96.94
83195;BME280;73090;49.282;11.402;2024-02-14T06:41:03;96909.28;;;0.90;95.98
83195;BME280;73090;49.282;11.402;2024-02-14T06:45:06;96916.00;;;0.93;96.00
83195;BME280;73090;49.282;11.402;2024-02-14T06:49:08;96915.56;;;0.99;95.62
83195;BME280;73090;49.282;11.402;2024-02-14T06:53:10;96920.50;;;1.02;95.52
83195;BME280;73090;49.282;11.402;2024-02-14T06:57:12;96924.13;;;1.11;95.68
83195;BME280;73090;49.282;11.402;2024-02-14T07:01:13;96924.63;;;1.16;95.31
83195;BME280;73090;49.282;11.402;2024-02-14T07:05:16;96929.09;;;1.25;93.93
83195;BME280;73090;49.282;11.402;2024-02-14T07:09:18;96921.69;;;1.32;93.49
83195;BME280;73090;49.282;11.402;2024-02-14T07:13:20;96919.31;;;1.40;93.20
83195;BME280;73090;49.282;11.402;2024-02-14T07:17:21;96925.78;;;1.46;91.71
83195;BME280;73090;49.282;11.402;2024-02-14T07:21:23;96924.72;;;1.49;92.08
83195;BME280;73090;49.282;11.402;2024-02-14T07:25:24;96937.56;;;1.50;92.69
83195;BME280;73090;49.282;11.402;2024-02-14T07:29:26;96934.28;;;1.48;92.94
83195;BME280;73090;49.282;11.402;2024-02-14T07:33:28;96932.38;;;1.50;93.58
83195;BME280;73090;49.282;11.402;2024-02-14T07:37:30;96930.94;;;1.57;93.90
83195;BME280;73090;49.282;11.402;2024-02-14T07:41:32;96921.75;;;1.65;93.79
83195;BME280;73090;49.282;11.402;2024-02-14T07:45:33;96920.44;;;1.70;93.72
83195;BME280;73090;49.282;11.402;2024-02-14T07:49:35;96916.75;;;1.84;93.62
83195;BME280;73090;49.282;11.402;2024-02-14T07:53:37;96916.41;;;1.89;93.43
83195;BME280;73090;49.282;11.402;2024-02-14T07:57:40;96900.00;;;1.99;93.61
83195;BME280;73090;49.282;11.402;2024-02-14T08:01:42;96911.97;;;2.12;93.37
83195;BME280;73090;49.282;11.402;2024-02-14T08:05:44;96903.59;;;2.41;93.79
83195;BME280;73090;49.282;11.402;2024-02-14T08:09:46;96912.84;;;2.76;93.14
83195;BME280;73090;49.282;11.402;2024-02-14T08:13:48;96913.88;;;2.94;91.42
83195;BME280;73090;49.282;11.402;2024-02-14T08:17:49;96913.13;;;3.03;89.93
83195;BME280;73090;49.282;11.402;2024-02-14T08:21:52;96908.09;;;3.12;90.10
83195;BME280;73090;49.282;11.402;2024-02-14T08:25:59;96922.41;;;3.37;89.96
83195;BME280;73090;49.282;11.402;2024-02-14T08:30:00;96935.63;;;3.55;89.27
83195;BME280;73090;49.282;11.402;2024-02-14T08:34:02;96939.09;;;3.75;89.05
83195;BME280;73090;49.282;11.402;2024-02-14T08:38:04;96944.47;;;3.93;88.27
83195;BME280;73090;49.282;11.402;2024-02-14T08:42:05;96926.84;;;3.96;86.83
83195;BME280;73090;49.282;11.402;2024-02-14T08:46:12;96932.97;;;3.95;87.19
83195;BME280;73090;49.282;11.402;2024-02-14T08:50:14;96934.63;;;3.96;87.42
83195;BME280;73090;49.282;11.402;2024-02-14T08:54:16;96932.56;;;3.90;87.42
83195;BME280;73090;49.282;11.402;2024-02-14T08:58:17;96930.78;;;3.91;88.38
83195;BME280;73090;49.282;11.402;2024-02-14T09:02:19;96935.56;;;3.95;88.68
83195;BME280;73090;49.282;11.402;2024-02-14T09:06:21;96925.84;;;3.97;89.14
83195;BME280;73090;49.282;11.402;2024-02-14T09:10:23;96930.38;;;3.95;89.18
83195;BME280;73090;49.282;11.402;2024-02-14T09:14:25;96934.63;;;3.96;89.77
83195;BME280;73090;49.282;11.402;2024-02-14T09:18:28;96939.56;;;3.90;89.71
83195;BME280;73090;49.282;11.402;2024-02-14T09:22:35;96935.03;;;3.92;89.81
83195;BME280;73090;49.282;11.402;2024-02-14T09:26:37;96935.84;;;3.92;90.48
83195;BME280;73090;49.282;11.402;2024-02-14T09:30:39;96937.38;;;4.14;91.13
83195;BME280;73090;49.282;11.402;2024-02-14T09:34:41;96937.53;;;4.52;89.31
83195;BME280;73090;49.282;11.402;2024-02-14T09:38:43;96929.81;;;4.89;88.64
83195;BME280;73090;49.282;11.402;2024-02-14T09:42:56;96940.69;;;5.22;85.71
83195;BME280;73090;49.282;11.402;2024-02-14T09:46:59;96938.09;;;5.22;85.32
83195;BME280;73090;49.282;11.402;2024-02-14T09:51:02;96945.66;;;5.16;85.72
83195;BME280;73090;49.282;11.402;2024-02-14T09:55:05;96948.56;;;5.03;87.33
83195;BME280;73090;49.282;11.402;2024-02-14T09:59:09;96942.81;;;4.89;86.73
83195;BME280;73090;49.282;11.402;2024-02-14T10:03:11;96942.97;;;4.88;87.79
83195;BME280;73090;49.282;11.402;2024-02-14T10:07:13;96943.81;;;4.88;89.20
83195;BME280;73090;49.282;11.402;2024-02-14T10:11:15;96939.53;;;4.97;89.40
83195;BME280;73090;49.282;11.402;2024-02-14T10:15:16;96943.91;;;5.06;88.31
83195;BME280;73090;49.282;11.402;2024-02-14T10:19:18;96940.44;;;5.16;89.42
83195;BME280;73090;49.282;11.402;2024-02-14T10:23:20;96944.97;;;5.23;88.69
83195;BME280;73090;49.282;11.402;2024-02-14T10:27:22;96949.28;;;5.33;88.33
83195;BME280;73090;49.282;11.402;2024-02-14T10:31:25;96947.78;;;5.40;86.72
83195;BME280;73090;49.282;11.402;2024-02-14T10:35:28;96948.44;;;5.42;86.99
83195;BME280;73090;49.282;11.402;2024-02-14T10:39:31;96953.91;;;5.49;87.04
83195;BME280;73090;49.282;11.402;2024-02-14T10:43:34;96941.56;;;5.51;86.63
83195;BME280;73090;49.282;11.402;2024-02-14T10:47:36;96936.34;;;5.78;86.60
83195;BME280;73090;49.282;11.402;2024-02-14T10:51:40;96936.78;;;6.02;84.79
83195;BME280;73090;49.282;11.402;2024-02-14T10:55:46;96931.56;;;6.20;85.00
83195;BME280;73090;49.282;11.402;2024-02-14T10:59:49;96927.84;;;6.40;83.33
83195;BME280;73090;49.282;11.402;2024-02-14T11:03:51;96921.66;;;6.59;84.21
83195;BME280;73090;49.282;11.402;2024-02-14T11:07:53;96925.56;;;6.81;83.49
83195;BME280;73090;49.282;11.402;2024-02-14T11:12:00;96921.25;;;6.98;82.31
83195;BME280;73090;49.282;11.402;2024-02-14T11:16:03;96924.59;;;7.08;81.75
83195;BME280;73090;49.282;11.402;2024-02-14T11:20:32;96917.47;;;7.19;80.81
83195;BME280;73090;49.282;11.402;2024-02-14T11:24:36;96908.56;;;7.38;79.76
83195;BME280;73090;49.282;11.402;2024-02-14T11:28:37;96912.53;;;7.42;78.75
83195;BME280;73090;49.282;11.402;2024-02-14T11:32:44;96913.81;;;7.38;79.94
83195;BME280;73090;49.282;11.402;2024-02-14T11:36:47;96913.19;;;7.44;79.55
83195;BME280;73090;49.282;11.402;2024-02-14T11:40:49;96925.94;;;7.47;79.91
83195;BME280;73090;49.282;11.402;2024-02-14T11:44:52;96922.25;;;7.58;80.94
83195;BME280;73090;49.282;11.402;2024-02-14T11:48:55;96924.06;;;7.66;79.27
83195;BME280;73090;49.282;11.402;2024-02-14T11:52:58;96914.50;;;7.91;76.50
83195;BME280;73090;49.282;11.402;2024-02-14T11:57:00;96918.09;;;7.98;76.15
83195;BME280;73090;49.282;11.402;2024-02-14T12:01:03;96911.28;;;8.13;75.35
83195;BME280;73090;49.282;11.402;2024-02-14T12:05:08;96906.84;;;8.22;75.18
83195;BME280;73090;49.282;11.402;2024-02-14T12:09:11;96910.19;;;8.49;74.38
83195;BME280;73090;49.282;11.402;2024-02-14T12:13:15;96901.34;;;8.66;72.11
83195;BME280;73090;49.282;11.402;2024-02-14T12:17:19;96901.00;;;8.86;72.47
83195;BME280;73090;49.282;11.402;2024-02-14T12:21:23;96903.44;;;8.87;72.26
83195;BME280;73090;49.282;11.402;2024-02-14T12:25:29;96890.19;;;8.89;71.47
83195;BME280;73090;49.282;11.402;2024-02-14T12:29:35;96896.09;;;8.91;72.32
83195;BME280;73090;49.282;11.402;2024-02-14T12:33:37;96893.16;;;8.94;72.69
83195;BME280;73090;49.282;11.402;2024-02-14T12:37:39;96887.13;;;9.33;70.56
83195;BME280;73090;49.282;11.402;2024-02-14T12:41:41;96879.78;;;9.20;70.07
83195;BME280;73090;49.282;11.402;2024-02-14T12:45:43;96884.41;;;9.18;71.76
83195;BME280;73090;49.282;11.402;2024-02-14T12:49:45;96891.59;;;9.24;71.85
83195;BME280;73090;49.282;11.402;2024-02-14T12:53:47;96899.81;;;9.21;72.08
83195;BME280;73090;49.282;11.402;2024-02-14T12:57:49;96896.00;;;9.32;71.49
83195;BME280;73090;49.282;11.402;2024-02-14T13:01:51;96892.19;;;9.43;71.03
83195;BME280;73090;49.282;11.402;2024-02-14T13:05:52;96904.03;;;9.31;70.85
83195;BME280;73090;49.282;11.402;2024-02-14T13:09:55;96898.94;;;9.37;71.89
83195;BME280;73090;49.282;11.402;2024-02-14T13:13:58;96892.06;;;9.28;71.66
83195;BME280;73090;49.282;11.402;2024-02-14T13:17:59;96897.31;;;9.28;73.37
83195;BME280;73090;49.282;11.402;2024-02-14T13:22:02;96900.22;;;9.50;72.48
83195;BME280;73090;49.282;11.402;2024-02-14T13:26:05;96903.34;;;9.45;71.23
83195;BME280;73090;49.282;11.402;2024-02-14T13:30:09;96901.03;;;9.50;72.50
83195;BME280;73090;49.282;11.402;2024-02-14T13:34:10;96893.66;;;9.46;72.41
83195;BME280;73090;49.282;11.402;2024-02-14T13:38:13;96893.16;;;9.50;73.05
83195;BME280;73090;49.282;11.402;2024-02-14T13:42:15;96881.50;;;9.44;72.57
83195;BME280;73090;49.282;11.402;2024-02-14T13:46:16;96881.63;;;9.51;71.25
83195;BME280;73090;49.282;11.402;2024-02-14T13:50:19;96887.75;;;9.43;72.26
83195;BME280;73090;49.282;11.402;2024-02-14T13:54:21;96892.84;;;9.45;72.79
83195;BME280;73090;49.282;11.402;2024-02-14T13:58:26;96893.09;;;9.58;72.87
83195;BME280;73090;49.282;11.402;2024-02-14T14:02:29;96892.78;;;9.61;72.21
83195;BME280;73090;49.282;11.402;2024-02-14T14:06:31;96887.53;;;9.61;72.09
83195;BME280;73090;49.282;11.402;2024-02-14T14:10:33;96896.88;;;9.64;72.23
83195;BME280;73090;49.282;11.402;2024-02-14T14:14:35;96886.56;;;9.54;72.67
83195;BME280;73090;49.282;11.402;2024-02-14T14:18:36;96908.56;;;9.53;72.59
83195;BME280;73090;49.282;11.402;2024-02-14T14:22:38;96905.63;;;9.48;73.05
83195;BME280;73090;49.282;11.402;2024-02-14T14:26:40;96907.25;;;9.49;73.25
83195;BME280;73090;49.282;11.402;2024-02-14T14:30:42;96902.66;;;9.43;74.38
83195;BME280;73090;49.282;11.402;2024-02-14T14:34:43;96905.47;;;9.41;74.29
83195;BME280;73090;49.282;11.402;2024-02-14T14:38:45;96909.97;;;9.24;74.95
83195;BME280;73090;49.282;11.402;2024-02-14T14:42:48;96918.63;;;9.25;74.78
83195;BME280;73090;49.282;11.402;2024-02-14T14:46:50;96916.06;;;9.00;76.89
83195;BME280;73090;49.282;11.402;2024-02-14T14:50:52;96919.34;;;9.02;77.16
83195;BME280;73090;49.282;11.402;2024-02-14T14:54:54;96927.88;;;8.88;77.21
83195;BME280;73090;49.282;11.402;2024-02-14T14:58:56;96917.56;;;8.78;76.80
83195;BME280;73090;49.282;11.402;2024-02-14T15:03:01;96905.28;;;8.70;77.23
83195;BME280;73090;49.282;11.402;2024-02-14T15:07:03;96899.22;;;8.70;75.78
83195;BME280;73090;49.282;11.402;2024-02-14T15:11:04;96903.16;;;8.66;77.17
83195;BME280;73090;49.282;11.402;2024-02-14T15:15:06;96902.69;;;8.62;76.43
83195;BME280;73090;49.282;11.402;2024-02-14T15:19:08;96897.75;;;8.59;77.19
83195;BME280;73090;49.282;11.402;2024-02-14T15:23:10;96903.00;;;8.59;77.16
83195;BME280;73090;49.282;11.402;2024-02-14T15:27:12;96898.72;;;8.66;76.36
83195;BME280;73090;49.282;11.402;2024-02-14T15:31:22;96902.84;;;8.61;76.85
83195;BME280;73090;49.282;11.402;2024-02-14T15:35:42;96893.34;;;8.60;77.22
83195;BME280;73090;49.282;11.402;2024-02-14T15:39:44;96898.75;;;8.58;77.54
83195;BME280;73090;49.282;11.402;2024-02-14T15:43:46;96891.03;;;8.57;77.65
83195;BME280;73090;49.282;11.402;2024-02-14T15:47:47;96885.97;;;8.55;78.25
83195;BME280;73090;49.282;11.402;2024-02-14T15:51:49;96892.50;;;8.51;78.74
83195;BME280;73090;49.282;11.402;2024-02-14T15:55:52;96898.09;;;8.48;78.77
83195;BME280;73090;49.282;11.402;2024-02-14T15:59:54;96899.22;;;8.45;78.72
83195;BME280;73090;49.282;11.402;2024-02-14T16:03:55;96908.84;;;8.36;79.59
83195;BME280;73090;49.282;11.402;2024-02-14T16:07:57;96904.75;;;8.42;79.26
83195;BME280;73090;49.282;11.402;2024-02-14T16:11:59;96914.22;;;8.27;80.05
83195;BME280;73090;49.282;11.402;2024-02-14T16:16:01;96922.56;;;8.22;80.06
83195;BME280;73090;49.282;11.402;2024-02-14T16:20:06;96911.94;;;8.15;80.26
83195;BME280;73090;49.282;11.402;2024-02-14T16:24:07;96921.41;;;8.08;80.90
83195;BME280;73090;49.282;11.402;2024-02-14T16:28:09;96921.06;;;8.03;81.93
83195;BME280;73090;49.282;11.402;2024-02-14T16:32:12;96911.25;;;7.97;82.99
83195;BME280;73090;49.282;11.402;2024-02-14T16:36:14;96923.16;;;7.91;82.36
83195;BME280;73090;49.282;11.402;2024-02-14T16:40:15;96921.03;;;7.87;82.90
83195;BME280;73090;49.282;11.402;2024-02-14T16:44:17;96919.22;;;7.87;81.83
83195;BME280;73090;49.282;11.402;2024-02-14T16:48:18;96927.38;;;7.84;81.98
83195;BME280;73090;49.282;11.402;2024-02-14T16:52:20;96923.81;;;7.85;81.74
83195;BME280;73090;49.282;11.402;2024-02-14T16:56:22;96926.59;;;7.84;81.65
83195;BME280;73090;49.282;11.402;2024-02-14T17:00:25;96930.84;;;7.85;82.55
83195;BME280;73090;49.282;11.402;2024-02-14T17:04:27;96932.44;;;7.77;82.62
83195;BME280;73090;49.282;11.402;2024-02-14T17:08:29;96945.69;;;7.76;83.17
83195;BME280;73090;49.282;11.402;2024-02-14T17:12:31;96943.38;;;7.73;83.72
83195;BME280;73090;49.282;11.402;2024-02-14T17:16:33;96939.78;;;7.66;84.87
83195;BME280;73090;49.282;11.402;2024-02-14T17:20:35;96942.69;;;7.62;84.93
83195;BME280;73090;49.282;11.402;2024-02-14T17:24:37;96953.78;;;7.56;85.48
83195;BME280;73090;49.282;11.402;2024-02-14T17:28:40;96945.06;;;7.48;86.74
83195;BME280;73090;49.282;11.402;2024-02-14T17:32:41;96953.56;;;7.41;86.88
83195;BME280;73090;49.282;11.402;2024-02-14T17:36:49;96958.56;;;7.35;88.20
83195;BME280;73090;49.282;11.402;2024-02-14T17:40:52;96961.69;;;7.30;88.68
83195;BME280;73090;49.282;11.402;2024-02-14T17:44:57;96955.41;;;7.23;89.32
83195;BME280;73090;49.282;11.402;2024-02-14T17:48:59;96951.75;;;7.16;90.22
83195;BME280;73090;49.282;11.402;2024-02-14T17:53:02;96954.16;;;7.09;90.77
83195;BME280;73090;49.282;11.402;2024-02-14T17:57:03;96952.84;;;7.05;91.79
83195;BME280;73090;49.282;11.402;2024-02-14T18:01:05;96958.53;;;7.00;91.65
83195;BME280;73090;49.282;11.402;2024-02-14T18:05:07;96963.22;;;6.97;92.26
83195;BME280;73090;49.282;11.402;2024-02-14T18:09:10;96952.41;;;6.92;92.72
83195;BME280;73090;49.282;11.402;2024-02-14T18:13:12;96959.75;;;6.88;93.43
83195;BME280;73090;49.282;11.402;2024-02-14T18:17:13;96959.25;;;6.84;93.82
83195;BME280;73090;49.282;11.402;2024-02-14T18:21:15;96961.16;;;6.82;94.30
83195;BME280;73090;49.282;11.402;2024-02-14T18:25:17;96958.88;;;6.79;94.45
83195;BME280;73090;49.282;11.402;2024-02-14T18:29:18;96966.03;;;6.77;94.78
83195;BME280;73090;49.282;11.402;2024-02-14T18:33:20;96954.25;;;6.73;95.33
83195;BME280;73090;49.282;11.402;2024-02-14T18:37:22;96958.94;;;6.69;95.61
83195;BME280;73090;49.282;11.402;2024-02-14T18:41:23;96950.44;;;6.67;96.65
83195;BME280;73090;49.282;11.402;2024-02-14T18:45:25;96948.44;;;6.61;96.99
83195;BME280;73090;49.282;11.402;2024-02-14T18:49:26;96948.88;;;6.57;97.36
83195;BME280;73090;49.282;11.402;2024-02-14T18:53:28;96947.41;;;6.54;97.25
83195;BME280;73090;49.282;11.402;2024-02-14T18:57:31;96951.78;;;6.53;97.41
83195;BME280;73090;49.282;11.402;2024-02-14T19:01:32;96951.94;;;6.52;97.94
83195;BME280;73090;49.282;11.402;2024-02-14T19:05:34;96954.03;;;6.48;98.09
83195;BME280;73090;49.282;11.402;2024-02-14T19:09:36;96951.56;;;6.47;98.30
83195;BME280;73090;49.282;11.402;2024-02-14T19:13:38;96943.88;;;6.45;98.24
83195;BME280;73090;49.282;11.402;2024-02-14T19:17:43;96953.53;;;6.45;98.26
83195;BME280;73090;49.282;11.402;2024-02-14T19:21:45;96939.81;;;6.43;98.38
83195;BME280;73090;49.282;11.402;2024-02-14T19:25:47;96934.03;;;6.39;98.20
83195;BME280;73090;49.282;11.402;2024-02-14T19:29:50;96927.19;;;6.38;98.36
83195;BME280;73090;49.282;11.402;2024-02-14T19:33:51;96928.97;;;6.38;98.33
83195;BME280;73090;49.282;11.402;2024-02-14T19:37:54;96925.97;;;6.32;98.36
83195;BME280;73090;49.282;11.402;2024-02-14T19:41:56;96934.13;;;6.29;98.41
83195;BME280;73090;49.282;11.402;2024-02-14T19:45:57;96931.00;;;6.26;98.81
83195;BME280;73090;49.282;11.402;2024-02-14T19:49:59;96933.59;;;6.26;98.94
83195;BME280;73090;49.282;11.402;2024-02-14T19:54:09;96942.94;;;6.28;99.27
83195;BME280;73090;49.282;11.402;2024-02-14T19:58:11;96928.22;;;6.27;99.60
83195;BME280;73090;49.282;11.402;2024-02-14T20:02:13;96933.59;;;6.26;99.23
83195;BME280;73090;49.282;11.402;2024-02-14T20:06:14;96938.81;;;6.26;99.41
83195;BME280;73090;49.282;11.402;2024-02-14T20:10:16;96941.56;;;6.24;99.38
83195;BME280;73090;49.282;11.402;2024-02-14T20:14:18;96938.31;;;6.22;99.24
83195;BME280;73090;49.282;11.402;2024-02-14T20:18:20;96943.53;;;6.22;99.79
83195;BME280;73090;49.282;11.402;2024-02-14T20:22:22;96938.16;;;6.24;99.62
83195;BME280;73090;49.282;11.402;2024-02-14T20:26:31;96928.59;;;6.32;100.00
83195;BME280;73090;49.282;11.402;2024-02-14T20:30:33;96924.44;;;6.40;100.00
83195;BME280;73090;49.282;11.402;2024-02-14T20:34:36;96928.38;;;6.44;100.00
83195;BME280;73090;49.282;11.402;2024-02-14T20:38:38;96935.25;;;6.45;100.00
83195;BME280;73090;49.282;11.402;2024-02-14T20:42:41;96921.53;;;6.43;100.00
83195;BME280;73090;49.282;11.402;2024-02-14T20:46:43;96926.91;;;6.41;100.00
83195;BME280;73090;49.282;11.402;2024-02-14T20:50:50;96923.59;;;6.39;100.00
83195;BME280;73090;49.282;11.402;2024-02-14T20:54:55;96928.00;;;6.39;100.00
83195;BME280;73090;49.282;11.402;2024-02-14T20:58:57;96924.03;;;6.34;100.00
83195;BME280;73090;49.282;11.402;2024-02-14T21:03:11;96918.97;;;6.33;100.00
83195;BME280;73090;49.282;11.402;2024-02-14T21:07:13;96921.06;;;6.29;100.00
83195;BME280;73090;49.282;11.402;2024-02-14T21:11:17;96915.19;;;6.27;100.00
83195;BME280;73090;49.282;11.402;2024-02-14T21:15:19;96928.22;;;6.27;100.00